首页
METAR-TAF:

METAR-TAF

机场 :

Albert J. Ellis Airport

傑克遜維爾, 北卡罗来纳州, 美国

纬度: 34-50N, 经度: 077-37W, 海拔: 29米

当前天气观测

该预报发布于27分钟前的19:56 UTC
风速4节,风向多变
温度 17°C
湿度 77%
气压 1015 hPa
能見度: 16.1公里
多云层高于2200英尺

METAR: KOAJ 201956Z VRB04KT 10SM BKN022 17/13 A2998 RMK AO2 SLP156 T01720128

时间: 15:23 (20:23 UTC)

预报

该预报发布于1小时和13分钟前的19:10 UTC
预报有效从20日的 19点(UTC)到 21日的 18点(UTC)
风速5节,风向西
能見度: 10公里
多云层高于2000英尺
阴天层高于10000英尺
从 20日的 2200点(UTC)
风速6节,风向西北
能見度: 10公里
散云层高于11000英尺
从 21日的 0600点(UTC)
风速5节,风向西北
能見度: 10公里
天空无云

TAF: KOAJ 201910Z 2019/2118 26005KT P6SM BKN020 OVC100 FM202200 32006KT P6SM SCT110 FM210600 31005KT P6SM SKC AMD LTD TO CLD VIS AND WIND

超过4000个机场的气象观测和天气预报(METAR&TAF报告)。

可查询的气象台以黄色和红色小点在地图上表示。

将鼠标移到小点上方,可查看气象台名称。

然后点击查看天气观测和预报。

如需切换地图:点击带黑十字的绿色按钮放大地图;点击带横线的绿色按钮缩小地图;或者点击绿色箭头查看邻近地区的地图。


METAR-TAF: